Time;durP1;ratioP1;P1;durP2;ratioP2;P2;SDS_P1;SDS_P2;PMS_P1;PMS_P2;Temp;Humidity;BMP_temperature;BMP_pressure;BME280_temperature;BME280_humidity;BME280_pressure;Samples;Min_cycle;Max_cycle;Signal;HPM_P1;HPM_P2
2021/05/23 00:02:25;;;;;;;16.17;8.50;;;10.90;93.30;;;;;;5072521;28;20033;-76
2021/05/23 00:04:51;;;;;;;18.60;8.67;;;10.90;93.30;;;;;;5072369;28;20503;-76
2021/05/23 00:07:20;;;;;;;17.07;8.00;;;10.90;93.30;;;;;;5072522;28;20468;-76
2021/05/23 00:09:55;;;;;;;17.47;8.27;;;10.90;93.30;;;;;;5067349;28;20082;-76
2021/05/23 00:12:20;;;;;;;18.70;8.47;;;10.90;93.30;;;;;;5034908;28;20045;-76
2021/05/23 00:14:46;;;;;;;14.43;8.17;;;10.90;93.30;;;;;;5051241;28;20499;-76
2021/05/23 00:17:11;;;;;;;19.30;9.60;;;10.90;93.30;;;;;;5034229;28;20111;-76
2021/05/23 00:19:37;;;;;;;15.47;8.10;;;10.80;93.30;;;;;;5052364;28;20043;-78
2021/05/23 00:22:05;;;;;;;14.97;8.20;;;10.80;93.30;;;;;;5053471;28;20033;-79
2021/05/23 00:24:31;;;;;;;15.67;8.60;;;10.80;93.40;;;;;;5052779;28;20037;-79
2021/05/23 00:26:57;;;;;;;16.97;8.93;;;10.80;93.40;;;;;;5052242;28;20472;-79
2021/05/23 00:29:23;;;;;;;16.77;8.87;;;10.90;93.40;;;;;;5053596;28;20029;-78
2021/05/23 00:31:48;;;;;;;17.20;9.23;;;10.90;93.40;;;;;;5052158;28;20446;-76
2021/05/23 00:34:14;;;;;;;16.03;8.83;;;10.90;93.30;;;;;;5052153;28;20365;-76
2021/05/23 00:36:40;;;;;;;14.53;7.97;;;10.90;93.40;;;;;;5053292;28;20056;-75
2021/05/23 00:39:06;;;;;;;17.27;9.23;;;10.90;93.40;;;;;;5053430;28;20384;-76
2021/05/23 00:41:32;;;;;;;17.13;8.67;;;10.90;93.70;;;;;;5052075;28;20063;-76
2021/05/23 00:43:59;;;;;;;15.47;8.57;;;10.90;93.40;;;;;;5052105;28;20044;-76
2021/05/23 00:46:24;;;;;;;18.30;9.27;;;10.80;93.40;;;;;;5035529;28;20476;-75
2021/05/23 00:48:50;;;;;;;15.93;8.90;;;10.80;93.50;;;;;;5053284;28;20040;-76
2021/05/23 00:51:15;;;;;;;14.43;7.87;;;10.80;93.40;;;;;;5034726;28;20033;-76
2021/05/23 00:53:41;;;;;;;15.03;7.80;;;10.80;93.40;;;;;;5035332;28;20029;-76
2021/05/23 00:56:07;;;;;;;13.87;7.87;;;10.90;93.50;;;;;;5051886;28;20115;-77
2021/05/23 00:58:32;;;;;;;16.90;8.90;;;10.80;93.40;;;;;;5051737;28;20025;-76
2021/05/23 01:00:58;;;;;;;15.47;8.90;;;10.90;93.40;;;;;;5051725;28;20032;-76
2021/05/23 01:03:27;;;;;;;16.97;8.67;;;10.90;93.40;;;;;;5052918;28;20036;-76
2021/05/23 01:06:04;;;;;;;17.03;8.60;;;10.80;93.40;;;;;;5052875;28;20037;-76
2021/05/23 01:08:31;;;;;;;17.83;8.43;;;10.80;93.50;;;;;;5051675;28;20037;-76
2021/05/23 01:11:28;;;;;;;16.03;8.23;;;10.80;93.40;;;;;;5052427;28;20100;-76
2021/05/23 01:13:57;;;;;;;14.87;6.83;;;10.80;93.50;;;;;;5051346;28;20025;-76
2021/05/23 01:16:34;;;;;;;13.60;6.57;;;10.90;93.50;;;;;;5051568;28;20021;-76
2021/05/23 01:19:31;;;;;;;11.77;6.23;;;10.80;93.40;;;;;;5051627;28;20021;-76
2021/05/23 01:22:17;;;;;;;14.40;6.10;;;10.80;93.40;;;;;;5052739;28;20021;-76
2021/05/23 01:24:57;;;;;;;13.43;6.43;;;10.80;93.60;;;;;;5051348;28;20024;-76
2021/05/23 01:27:26;;;;;;;11.90;6.40;;;10.80;93.30;;;;;;5052673;28;20029;-76
2021/05/23 01:29:52;;;;;;;12.63;6.17;;;10.80;93.30;;;;;;5051432;28;20049;-76
2021/05/23 01:32:18;;;;;;;15.30;5.53;;;10.80;93.50;;;;;;5051552;28;20540;-77
2021/05/23 01:34:44;;;;;;;12.33;6.30;;;10.80;93.20;;;;;;5052607;28;20108;-76
2021/05/23 01:37:14;;;;;;;13.00;6.50;;;10.80;93.20;;;;;;5034765;28;20025;-76
2021/05/23 01:39:40;;;;;;;12.83;5.87;;;10.80;93.20;;;;;;5052516;28;20025;-76
2021/05/23 01:42:09;;;;;;;13.80;6.63;;;10.80;93.20;;;;;;5051322;28;20027;-76
2021/05/23 01:44:35;;;;;;;16.80;6.97;;;10.70;93.20;;;;;;5052556;28;20560;-76
2021/05/23 01:47:01;;;;;;;11.87;6.83;;;10.80;93.20;;;;;;5051219;28;20128;-76
2021/05/23 01:49:26;;;;;;;13.70;6.83;;;10.70;93.20;;;;;;5051349;28;20040;-76
2021/05/23 01:51:52;;;;;;;15.20;8.27;;;10.70;93.30;;;;;;5052298;28;20029;-75
2021/05/23 01:54:18;;;;;;;14.93;7.73;;;10.70;93.20;;;;;;5034708;28;20125;-76
2021/05/23 01:56:43;;;;;;;14.10;7.87;;;10.70;93.20;;;;;;5051280;28;20027;-76
2021/05/23 01:59:09;;;;;;;16.47;8.67;;;10.70;93.20;;;;;;5051259;28;20079;-76
2021/05/23 02:01:34;;;;;;;16.30;8.57;;;10.60;93.20;;;;;;5051098;28;20116;-76
2021/05/23 02:04:02;;;;;;;15.77;8.90;;;10.60;93.20;;;;;;5036854;28;20110;-76
2021/05/23 02:06:28;;;;;;;15.30;9.27;;;10.60;93.20;;;;;;5056098;28;20051;-76
2021/05/23 02:08:54;;;;;;;17.90;9.50;;;10.60;93.30;;;;;;5054871;28;20124;-76
2021/05/23 02:11:20;;;;;;;18.73;9.17;;;10.50;93.30;;;;;;5055445;28;20129;-76
2021/05/23 02:13:52;;;;;;;17.43;9.13;;;10.50;93.40;;;;;;5055995;28;20487;-75
2021/05/23 02:16:18;;;;;;;19.00;10.47;;;10.50;93.40;;;;;;5054667;28;20020;-76
2021/05/23 02:18:45;;;;;;;19.00;10.50;;;10.50;93.50;;;;;;5054796;28;20025;-76
2021/05/23 02:21:13;;;;;;;17.97;10.73;;;10.40;93.50;;;;;;5054591;28;20112;-76
2021/05/23 02:23:48;;;;;;;16.83;10.63;;;10.50;93.60;;;;;;5055681;28;20032;-75
2021/05/23 02:26:14;;;;;;;20.53;11.87;;;10.40;93.60;;;;;;5054455;28;20021;-76
2021/05/23 02:28:40;;;;;;;19.70;10.87;;;10.40;93.60;;;;;;5038009;28;20028;-76
2021/05/23 02:31:06;;;;;;;20.13;12.13;;;10.40;93.70;;;;;;5054364;28;20366;-76
2021/05/23 02:33:31;;;;;;;19.93;11.30;;;10.50;93.80;;;;;;5055473;28;20056;-76
2021/05/23 02:35:57;;;;;;;20.83;12.23;;;10.50;93.80;;;;;;5054380;28;20416;-76
2021/05/23 02:38:23;;;;;;;18.23;11.60;;;10.50;93.80;;;;;;5054249;28;20112;-76
2021/05/23 02:40:50;;;;;;;20.43;11.77;;;10.50;93.80;;;;;;5055245;28;20376;-76
2021/05/23 02:43:18;;;;;;;19.63;12.70;;;10.50;93.80;;;;;;5054235;28;20037;-76
2021/05/23 02:45:44;;;;;;;19.23;11.60;;;10.50;93.80;;;;;;5054328;28;20046;-76
2021/05/23 02:48:10;;;;;;;24.77;12.17;;;10.50;93.80;;;;;;5053980;28;20116;-76
2021/05/23 02:50:39;;;;;;;21.57;11.87;;;10.50;93.80;;;;;;5055339;28;20017;-76
2021/05/23 02:53:06;;;;;;;21.03;12.70;;;10.50;93.80;;;;;;5053934;28;20029;-76
2021/05/23 02:55:34;;;;;;;19.87;12.40;;;10.50;93.80;;;;;;5055531;28;20033;-79
2021/05/23 02:57:59;;;;;;;16.67;11.60;;;10.50;93.90;;;;;;5055369;28;20514;-79
2021/05/23 03:00:26;;;;;;;18.97;12.67;;;10.50;93.80;;;;;;5055156;28;20021;-79
2021/05/23 03:02:52;;;;;;;19.53;12.70;;;10.50;93.90;;;;;;5055084;28;20025;-79
2021/05/23 03:05:22;;;;;;;20.03;12.30;;;10.50;93.80;;;;;;5053900;28;20044;-79
2021/05/23 03:07:50;;;;;;;18.80;11.77;;;10.50;93.90;;;;;;5053744;28;20435;-78
2021/05/23 03:10:20;;;;;;;19.27;12.30;;;10.50;93.90;;;;;;5053676;28;20028;-79
2021/05/23 03:12:45;;;;;;;16.93;11.73;;;10.40;93.90;;;;;;5053339;28;20041;-79
2021/05/23 03:15:13;;;;;;;21.07;12.63;;;10.50;93.90;;;;;;5054505;28;20031;-79
2021/05/23 03:17:40;;;;;;;18.50;13.03;;;10.50;93.90;;;;;;5037031;28;20049;-79
2021/05/23 03:20:07;;;;;;;22.40;13.50;;;10.50;93.90;;;;;;5054739;28;20013;-79
2021/05/23 03:22:37;;;;;;;19.27;13.63;;;10.40;94.00;;;;;;5053421;28;20099;-76
2021/05/23 03:25:07;;;;;;;22.93;14.23;;;10.40;94.00;;;;;;5053335;28;20048;-76
2021/05/23 03:27:33;;;;;;;24.30;14.20;;;10.40;94.10;;;;;;5037252;28;20025;-76
2021/05/23 03:29:59;;;;;;;21.23;13.80;;;10.50;94.10;;;;;;5054488;28;20543;-76
2021/05/23 03:32:25;;;;;;;25.27;14.87;;;10.50;94.10;;;;;;5053177;28;20040;-76
2021/05/23 03:34:51;;;;;;;24.27;13.93;;;10.60;94.20;;;;;;5036658;28;20017;-76
2021/05/23 03:37:16;;;;;;;20.20;13.37;;;10.50;94.20;;;;;;5053204;28;20083;-76
2021/05/23 03:39:42;;;;;;;23.53;13.53;;;10.50;94.20;;;;;;5054200;28;20033;-76
2021/05/23 03:42:07;;;;;;;20.03;13.53;;;10.50;94.20;;;;;;5036444;28;20060;-76
2021/05/23 03:44:33;;;;;;;23.10;13.80;;;10.60;94.20;;;;;;5052841;28;20060;-76
2021/05/23 03:46:59;;;;;;;21.13;13.77;;;10.60;94.30;;;;;;5052951;28;20441;-76
2021/05/23 03:49:25;;;;;;;20.97;14.80;;;10.60;94.20;;;;;;5054124;28;20385;-76
2021/05/23 03:51:50;;;;;;;21.33;14.10;;;10.50;94.30;;;;;;5036166;28;20120;-76
2021/05/23 03:54:16;;;;;;;23.67;14.90;;;10.60;94.30;;;;;;5036197;28;20053;-76
2021/05/23 03:56:42;;;;;;;22.80;14.83;;;10.60;94.40;;;;;;5053720;28;20025;-77
2021/05/23 03:59:08;;;;;;;21.70;14.60;;;10.60;94.40;;;;;;5052605;28;20017;-77
2021/05/23 04:01:34;;;;;;;24.50;15.17;;;10.60;94.40;;;;;;5062606;28;20037;-76
2021/05/23 04:04:01;;;;;;;19.73;14.27;;;10.60;94.40;;;;;;5073564;28;20105;-77
2021/05/23 04:06:27;;;;;;;23.40;15.43;;;10.60;94.40;;;;;;5054367;28;20476;-77
2021/05/23 04:08:53;;;;;;;25.27;15.43;;;10.60;94.50;;;;;;5071448;28;20032;-77
2021/05/23 04:11:27;;;;;;;27.23;17.43;;;10.70;94.50;;;;;;5072110;28;20120;-77
2021/05/23 04:13:52;;;;;;;22.85;14.98;;;10.60;94.50;;;;;;5072555;28;20086;-77
2021/05/23 04:16:18;;;;;;;26.17;15.77;;;10.70;94.50;;;;;;5038267;28;20032;-77
2021/05/23 04:18:44;;;;;;;29.23;16.73;;;10.70;94.50;;;;;;5072018;28;20078;-77
2021/05/23 04:21:10;;;;;;;24.50;17.57;;;10.70;94.50;;;;;;5073273;28;20106;-77
2021/05/23 04:23:38;;;;;;;26.60;18.43;;;10.70;94.50;;;;;;5072002;28;20044;-77
2021/05/23 04:26:05;;;;;;;27.57;18.70;;;10.70;94.60;;;;;;5071549;28;20043;-77
2021/05/23 04:28:31;;;;;;;28.10;18.87;;;10.80;94.60;;;;;;5073414;28;20033;-77
2021/05/23 04:30:57;;;;;;;26.23;18.03;;;10.80;94.60;;;;;;5038686;28;20388;-77
2021/05/23 04:33:23;;;;;;;30.17;20.43;;;10.80;94.60;;;;;;5055123;28;20024;-77
2021/05/23 04:35:49;;;;;;;35.23;22.43;;;10.80;94.60;;;;;;5073000;28;20040;-77
2021/05/23 04:38:14;;;;;;;31.23;21.00;;;10.90;94.60;;;;;;5055068;28;20029;-78
2021/05/23 04:40:40;;;;;;;32.33;22.43;;;10.80;94.60;;;;;;5073081;28;20036;-78
2021/05/23 04:43:06;;;;;;;36.33;24.10;;;10.90;94.70;;;;;;5055196;28;20036;-78
2021/05/23 04:45:33;;;;;;;37.03;26.27;;;10.80;94.70;;;;;;5054978;28;20051;-78
2021/05/23 04:47:59;;;;;;;38.37;26.60;;;10.90;94.80;;;;;;5073074;28;20028;-78
2021/05/23 04:50:24;;;;;;;39.57;26.63;;;10.90;94.80;;;;;;5070866;28;20059;-78
2021/05/23 04:52:50;;;;;;;40.50;27.77;;;11.00;94.80;;;;;;5072520;28;20086;-78
2021/05/23 04:55:16;;;;;;;39.43;25.83;;;11.00;94.80;;;;;;5070070;28;20496;-78
2021/05/23 04:57:42;;;;;;;40.20;28.07;;;11.00;94.80;;;;;;5072698;28;20043;-78
2021/05/23 05:00:10;;;;;;;43.90;29.83;;;11.00;94.80;;;;;;5073237;28;20094;-78
2021/05/23 05:02:37;;;;;;;41.70;28.57;;;11.10;94.90;;;;;;5071596;28;20441;-77
2021/05/23 05:05:04;;;;;;;42.60;29.50;;;11.10;94.90;;;;;;5071141;28;20037;-78
2021/05/23 05:07:31;;;;;;;44.53;29.80;;;11.10;94.90;;;;;;5072968;28;20063;-78
2021/05/23 05:09:57;;;;;;;42.75;29.40;;;11.20;94.90;;;;;;5054741;28;20376;-80
2021/05/23 05:12:23;;;;;;;43.40;30.33;;;11.20;94.90;;;;;;5072680;28;20097;-78
2021/05/23 05:14:49;;;;;;;45.63;32.43;;;11.30;95.20;;;;;;5072913;28;20024;-77
2021/05/23 05:17:14;;;;;;;46.07;31.80;;;11.30;94.80;;;;;;5054851;28;20028;-78
2021/05/23 05:19:40;;;;;;;48.83;32.10;;;11.30;94.80;;;;;;5072943;28;20077;-77
2021/05/23 05:22:06;;;;;;;48.80;33.00;;;11.30;94.80;;;;;;5072816;28;20109;-77
2021/05/23 05:24:32;;;;;;;50.50;34.00;;;11.30;94.80;;;;;;5072630;28;20603;-77
2021/05/23 05:26:58;;;;;;;44.87;31.00;;;11.30;94.80;;;;;;5072817;28;20060;-78
2021/05/23 05:29:24;;;;;;;49.87;33.30;;;11.30;94.70;;;;;;5071286;28;20109;-78
2021/05/23 05:31:50;;;;;;;49.67;34.33;;;11.30;94.60;;;;;;5071187;28;20082;-77
2021/05/23 05:34:16;;;;;;;56.83;35.35;;;11.30;94.60;;;;;;5054913;28;20495;-79
2021/05/23 05:36:41;;;;;;;52.30;34.53;;;11.30;94.70;;;;;;5072799;28;20036;-78
2021/05/23 05:39:07;;;;;;;47.75;31.85;;;11.30;94.70;;;;;;5075248;28;20060;-77
2021/05/23 05:41:33;;;;;;;43.93;30.73;;;11.40;94.80;;;;;;5076271;28;20035;-77
2021/05/23 05:43:59;;;;;;;49.63;33.38;;;11.40;94.80;;;;;;5076443;28;20028;-77
2021/05/23 05:46:25;;;;;;;44.78;31.33;;;11.50;94.80;;;;;;5076663;28;20028;-78
2021/05/23 05:48:51;;;;;;;44.45;30.67;;;11.50;94.70;;;;;;5076244;28;20546;-77
2021/05/23 05:51:16;;;;;;;46.55;31.45;;;11.50;94.70;;;;;;5058151;28;20060;-78
2021/05/23 05:53:42;;;;;;;45.85;31.70;;;11.50;94.60;;;;;;5058432;28;20029;-77
2021/05/23 05:56:08;;;;;;;46.38;32.88;;;11.50;94.60;;;;;;5076392;28;20058;-79
2021/05/23 05:58:33;;;;;;;40.28;30.33;;;11.60;94.60;;;;;;5041974;28;20116;-77
2021/05/23 06:00:59;;;;;;;45.88;32.08;;;11.50;94.50;;;;;;5076278;28;20035;-78
2021/05/23 06:03:25;;;;;;;43.03;31.07;;;11.60;94.80;;;;;;5058535;28;20043;-79
2021/05/23 06:05:51;;;;;;;40.75;30.10;;;11.70;94.50;;;;;;5058314;28;20029;-79
2021/05/23 06:08:16;;;;;;;45.20;33.28;;;11.60;94.40;;;;;;5076366;28;20108;-78
2021/05/23 06:10:42;;;;;;;47.93;33.60;;;11.70;94.40;;;;;;5075630;28;20055;-78
2021/05/23 06:13:08;;;;;;;42.08;31.13;;;11.70;94.50;;;;;;5075896;28;20075;-78
2021/05/23 06:15:33;;;;;;;45.05;30.52;;;11.70;94.40;;;;;;5057775;28;20025;-78
2021/05/23 06:18:00;;;;;;;39.25;30.65;;;11.70;94.30;;;;;;5058062;28;20083;-77
2021/05/23 06:20:26;;;;;;;43.60;29.67;;;11.70;94.00;;;;;;5074409;28;20126;-78
2021/05/23 06:22:51;;;;;;;40.55;29.15;;;11.60;93.90;;;;;;5075606;28;20052;-78
2021/05/23 06:25:17;;;;;;;44.95;26.65;;;11.60;93.80;;;;;;5074720;28;20024;-77
2021/05/23 06:27:43;;;;;;;37.80;23.67;;;11.50;93.60;;;;;;5074628;28;20040;-78
2021/05/23 06:30:10;;;;;;;31.33;21.23;;;11.50;93.70;;;;;;5075559;28;20032;-78
2021/05/23 06:32:36;;;;;;;36.13;21.27;;;11.50;93.70;;;;;;5075630;28;20020;-78
2021/05/23 06:35:03;;;;;;;33.30;20.73;;;11.50;93.80;;;;;;5057370;28;20021;-77
2021/05/23 06:37:28;;;;;;;31.10;19.67;;;11.50;93.70;;;;;;5074059;28;20423;-78
2021/05/23 06:39:54;;;;;;;31.67;18.00;;;11.40;93.50;;;;;;5074041;28;20029;-78
2021/05/23 06:42:20;;;;;;;27.03;17.07;;;11.40;93.60;;;;;;5074298;28;20058;-76
2021/05/23 06:44:46;;;;;;;32.83;18.23;;;11.40;93.50;;;;;;5075284;28;20048;-78
2021/05/23 06:47:11;;;;;;;25.02;17.20;;;11.50;93.50;;;;;;5075333;28;20032;-76
2021/05/23 06:49:37;;;;;;;25.70;15.77;;;11.50;93.40;;;;;;5072970;28;20028;-78
2021/05/23 06:52:03;;;;;;;22.97;14.77;;;11.50;93.40;;;;;;5074959;28;20021;-78
2021/05/23 06:54:29;;;;;;;24.53;14.47;;;11.40;93.20;;;;;;5074996;28;20033;-79
2021/05/23 06:56:55;;;;;;;26.53;14.73;;;11.50;93.30;;;;;;5073702;28;20036;-80
2021/05/23 06:59:21;;;;;;;24.93;15.00;;;11.40;93.10;;;;;;5075124;28;20096;-78
2021/05/23 07:01:46;;;;;;;25.47;13.63;;;11.50;93.20;;;;;;5075187;28;20464;-78
2021/05/23 07:04:12;;;;;;;22.40;12.70;;;11.50;92.90;;;;;;5075110;28;20033;-78
2021/05/23 07:06:38;;;;;;;27.83;12.77;;;11.50;92.80;;;;;;5056904;28;20033;-77
2021/05/23 07:09:04;;;;;;;20.70;11.90;;;11.40;92.90;;;;;;5073694;28;20033;-78
2021/05/23 07:11:29;;;;;;;23.80;12.93;;;11.40;92.90;;;;;;5056611;28;20040;-78
2021/05/23 07:13:55;;;;;;;23.80;11.23;;;11.40;92.80;;;;;;5057461;28;20024;-78
2021/05/23 07:16:21;;;;;;;22.75;10.65;;;11.40;92.80;;;;;;5073608;28;20115;-78
2021/05/23 07:18:47;;;;;;;17.25;10.43;;;11.40;92.90;;;;;;5056765;28;20112;-79
2021/05/23 07:21:12;;;;;;;21.27;11.27;;;11.50;93.00;;;;;;5073859;28;20438;-77
2021/05/23 07:23:38;;;;;;;17.83;9.47;;;11.40;92.60;;;;;;5075071;28;20036;-77
2021/05/23 07:26:04;;;;;;;24.17;12.33;;;11.50;92.80;;;;;;5073357;28;20080;-76
2021/05/23 07:28:30;;;;;;;19.93;10.17;;;11.40;92.40;;;;;;5073221;28;20021;-77
2021/05/23 07:30:56;;;;;;;16.47;10.73;;;11.40;92.20;;;;;;5074440;28;20098;-76
2021/05/23 07:33:21;;;;;;;17.70;10.55;;;11.40;91.90;;;;;;5074424;28;20468;-77
2021/05/23 07:35:47;;;;;;;19.48;9.88;;;11.50;92.10;;;;;;5074335;28;20061;-78
2021/05/23 07:38:13;;;;;;;20.38;9.80;;;11.50;91.80;;;;;;5074393;28;20134;-77
2021/05/23 07:40:39;;;;;;;30.67;10.00;;;11.50;91.50;;;;;;5073226;28;20024;-77
2021/05/23 07:43:05;;;;;;;18.80;8.73;;;11.60;91.70;;;;;;5073084;28;20476;-76
2021/05/23 07:45:31;;;;;;;20.77;7.73;;;11.60;91.40;;;;;;5056387;28;20033;-78
2021/05/23 07:47:57;;;;;;;19.10;7.82;;;11.70;91.20;;;;;;5056449;28;20039;-78
2021/05/23 07:50:23;;;;;;;14.15;7.60;;;11.70;91.30;;;;;;5072835;28;20020;-77
2021/05/23 07:52:49;;;;;;;16.92;7.40;;;11.70;91.10;;;;;;5074054;28;20028;-78
2021/05/23 07:55:15;;;;;;;18.17;7.47;;;11.70;91.00;;;;;;5072811;28;20108;-77
2021/05/23 07:57:41;;;;;;;15.47;7.03;;;11.70;91.00;;;;;;5074193;28;20036;-78
2021/05/23 08:00:08;;;;;;;16.07;8.03;;;11.70;91.10;;;;;;5073523;28;20432;-77
2021/05/23 08:02:34;;;;;;;18.65;7.10;;;11.70;91.20;;;;;;5072280;28;20127;-78
2021/05/23 08:05:00;;;;;;;16.48;6.30;;;11.70;91.10;;;;;;5073906;28;20060;-77
2021/05/23 08:07:26;;;;;;;11.40;6.13;;;11.80;91.20;;;;;;5055933;28;20040;-77
2021/05/23 08:09:51;;;;;;;13.57;5.22;;;11.80;91.20;;;;;;5070108;28;20032;-76
2021/05/23 08:12:18;;;;;;;14.07;5.43;;;11.90;91.20;;;;;;5065395;28;20071;-76
2021/05/23 08:14:44;;;;;;;11.07;5.03;;;11.90;91.10;;;;;;5071207;28;20025;-76
2021/05/23 08:17:10;;;;;;;10.10;5.63;;;11.90;91.10;;;;;;5072131;28;20058;-74
2021/05/23 08:19:36;;;;;;;13.20;6.38;;;12.10;91.10;;;;;;5055850;28;20024;-76
2021/05/23 08:22:01;;;;;;;11.85;6.45;;;12.00;90.90;;;;;;5072635;28;20097;-77
2021/05/23 08:24:30;;;;;;;18.98;7.50;;;12.00;90.70;;;;;;5073056;28;20037;-77
2021/05/23 08:26:56;;;;;;;19.73;8.20;;;12.00;90.00;;;;;;5073174;28;20052;-76
2021/05/23 08:29:22;;;;;;;14.05;6.95;;;12.10;90.10;;;;;;5039416;28;20109;-77
2021/05/23 08:31:47;;;;;;;13.18;6.72;;;12.30;90.30;;;;;;5055693;28;20028;-81
2021/05/23 08:34:13;;;;;;;12.45;6.28;;;12.40;89.40;;;;;;5072228;28;20024;-78
2021/05/23 08:36:38;;;;;;;16.27;6.10;;;12.50;87.90;;;;;;5072151;28;20388;-78
2021/05/23 08:39:05;;;;;;;12.93;6.15;;;12.60;88.40;;;;;;5072221;28;20047;-80
2021/05/23 08:41:30;;;;;;;11.48;5.32;;;12.60;87.60;;;;;;5072276;28;20056;-81
2021/05/23 08:43:56;;;;;;;11.65;5.10;;;12.70;87.30;;;;;;5072225;28;20391;-79
2021/05/23 08:46:26;;;;;;;10.82;4.18;;;12.70;86.40;;;;;;5073312;28;20553;-79
2021/05/23 08:48:52;;;;;;;12.50;4.28;;;12.80;85.60;;;;;;5072300;28;20024;-79
2021/05/23 08:51:18;;;;;;;12.05;3.78;;;12.80;84.30;;;;;;5055687;28;20040;-80
2021/05/23 08:53:44;;;;;;;14.38;4.32;;;12.80;84.30;;;;;;5055474;28;20032;-78
2021/05/23 08:56:10;;;;;;;11.90;3.83;;;12.70;83.50;;;;;;5055283;28;20039;-78
2021/05/23 08:58:36;;;;;;;9.43;2.95;;;12.70;83.10;;;;;;5073473;28;20033;-79
2021/05/23 09:01:01;;;;;;;12.27;3.38;;;12.70;83.50;;;;;;5072001;28;20027;-81
2021/05/23 09:03:29;;;;;;;12.45;3.20;;;12.70;83.60;;;;;;5055236;28;20377;-81
2021/05/23 09:05:56;;;;;;;9.35;2.13;;;12.90;84.50;;;;;;5072564;28;20032;-78
2021/05/23 09:08:25;;;;;;;9.65;2.25;;;12.90;82.90;;;;;;5073240;28;20044;-79
2021/05/23 09:10:59;;;;;;;12.00;2.40;;;12.90;82.00;;;;;;5072957;28;20104;-79
2021/05/23 09:13:29;;;;;;;;;;;13.00;81.40;;;;;;5076799;28;20113;-79
2021/05/23 09:16:00;;;;;;;6.93;1.55;;;13.00;82.10;;;;;;5077390;28;19904;-80
2021/05/23 09:18:37;;;;;;;6.43;1.52;;;13.10;82.00;;;;;;5077289;28;20387;-78
2021/05/23 09:21:03;;;;;;;9.88;1.90;;;13.20;81.50;;;;;;5077277;28;20021;-79
2021/05/23 09:23:40;;;;;;;8.93;1.42;;;13.30;81.10;;;;;;5076071;28;20078;-80
2021/05/23 09:26:06;;;;;;;7.10;1.45;;;13.40;76.20;;;;;;5075532;28;20028;-80
2021/05/23 09:28:31;;;;;;;5.28;0.90;;;13.50;75.80;;;;;;5077401;28;20025;-79
2021/05/23 09:30:57;;;;;;;3.35;0.70;;;13.50;75.30;;;;;;5059461;28;20542;-78
2021/05/23 09:33:23;;;;;;;4.25;0.80;;;13.60;72.00;;;;;;5076874;28;20049;-79
2021/05/23 09:35:49;;;;;;;3.15;0.77;;;13.60;69.20;;;;;;5062488;28;20043;-77
2021/05/23 09:38:17;;;;;;;4.63;0.50;;;13.60;67.90;;;;;;5077976;28;20037;-78
2021/05/23 09:40:44;;;;;;;5.82;0.88;;;13.60;65.20;;;;;;5078259;28;20036;-79
2021/05/23 09:43:18;;;;;;;5.90;0.68;;;13.60;64.50;;;;;;5079728;28;20116;-80
2021/05/23 09:45:46;;;;;;;6.53;0.98;;;13.70;64.20;;;;;;5078437;28;20146;-77
2021/05/23 09:48:18;;;;;;;2.42;0.52;;;13.70;64.40;;;;;;5075708;28;20380;-79
2021/05/23 09:50:45;;;;;;;4.57;0.80;;;13.60;62.50;;;;;;5075950;28;20109;-79
2021/05/23 09:53:32;;;;;;;5.88;0.70;;;13.60;63.60;;;;;;5075459;28;20035;-78
2021/05/23 09:56:09;;;;;;;5.85;0.85;;;13.60;63.50;;;;;;5076907;28;20479;-81
2021/05/23 09:58:37;;;;;;;7.78;0.60;;;13.70;65.20;;;;;;5077073;28;20024;-82
2021/05/23 10:01:08;;;;;;;3.42;0.70;;;13.90;64.50;;;;;;5076840;28;20021;-80
2021/05/23 10:03:37;;;;;;;3.97;0.70;;;13.90;63.50;;;;;;5075720;28;20484;-79
2021/05/23 10:06:03;;;;;;;1.52;0.55;;;14.00;63.00;;;;;;5075288;28;20021;-78
2021/05/23 10:08:29;;;;;;;5.57;0.82;;;14.10;63.60;;;;;;5076598;28;20077;-79
2021/05/23 10:10:56;;;;;;;6.47;0.80;;;14.20;63.60;;;;;;5076197;28;20115;-79
2021/05/23 10:13:24;;;;;;;2.72;0.80;;;14.40;61.90;;;;;;5074722;28;20504;-79
2021/05/23 10:15:50;;;;;;;7.40;1.15;;;14.50;60.40;;;;;;5076082;28;20028;-78
2021/05/23 10:18:19;;;;;;;7.10;0.90;;;14.60;60.10;;;;;;5076360;28;20025;-78
2021/05/23 10:20:45;;;;;;;6.00;0.85;;;14.70;61.70;;;;;;5076414;28;20078;-80
2021/05/23 10:23:22;;;;;;;7.70;1.50;;;14.80;61.70;;;;;;5075669;28;20024;-79
2021/05/23 10:25:53;;;;;;;6.68;1.30;;;14.90;60.90;;;;;;5076306;28;20020;-79
2021/05/23 10:28:20;;;;;;;4.32;1.10;;;15.00;62.30;;;;;;5074774;28;20032;-79
2021/05/23 10:30:54;;;;;;;6.93;1.30;;;15.30;62.60;;;;;;5074896;28;20021;-80
2021/05/23 10:33:21;;;;;;;7.32;1.40;;;15.40;61.60;;;;;;5074555;28;20032;-79
2021/05/23 10:35:50;;;;;;;6.90;1.35;;;15.30;60.40;;;;;;5058264;28;20123;-76
2021/05/23 10:38:20;;;;;;;7.95;1.42;;;15.10;60.60;;;;;;5074830;28;20020;-77
2021/05/23 10:41:01;;;;;;;4.15;1.00;;;14.90;62.00;;;;;;5076121;28;20017;-77
2021/05/23 10:43:29;;;;;;;10.13;1.33;;;14.80;62.30;;;;;;5074512;28;20560;-79
2021/05/23 10:46:04;;;;;;;3.72;1.10;;;14.90;63.10;;;;;;5075832;28;20025;-79
2021/05/23 10:48:30;;;;;;;4.28;1.17;;;15.00;63.10;;;;;;5074571;28;20024;-78
2021/05/23 10:50:55;;;;;;;4.43;1.23;;;15.10;61.80;;;;;;5075433;28;20020;-80
2021/05/23 10:53:32;;;;;;;7.22;0.85;;;15.20;61.50;;;;;;5074368;28;20504;-78
2021/05/23 10:55:57;;;;;;;5.72;1.05;;;15.20;60.80;;;;;;5076450;28;20055;-79
2021/05/23 10:58:25;;;;;;;5.07;1.10;;;15.30;60.30;;;;;;5074035;28;20059;-78
2021/05/23 11:00:52;;;;;;;4.53;0.80;;;15.20;60.40;;;;;;5074102;28;20025;-78
2021/05/23 11:03:19;;;;;;;7.60;1.10;;;15.20;60.80;;;;;;5073873;28;20039;-79
2021/05/23 11:05:46;;;;;;;6.65;1.13;;;15.30;60.70;;;;;;5075350;28;20033;-79
2021/05/23 11:08:14;;;;;;;3.47;0.98;;;15.30;59.20;;;;;;5073844;28;20047;-81
2021/05/23 11:10:44;;;;;;;6.47;1.20;;;15.20;59.90;;;;;;5056793;28;20051;-83
2021/05/23 11:13:13;;;;;;;3.65;0.98;;;15.30;59.00;;;;;;5073320;28;20064;-83
2021/05/23 11:15:46;;;;;;;6.75;0.75;;;15.20;58.50;;;;;;5075064;28;20029;-78
2021/05/23 11:18:19;;;;;;;4.00;0.90;;;15.30;58.20;;;;;;5073787;28;20016;-80
2021/05/23 11:21:03;;;;;;;4.50;0.87;;;15.40;56.20;;;;;;5073569;28;20529;-81
2021/05/23 11:23:29;;;;;;;4.82;0.70;;;15.60;55.00;;;;;;5074650;28;20111;-80
2021/05/23 11:26:23;;;;;;;7.30;1.05;;;15.80;54.50;;;;;;5073496;28;20024;-79
2021/05/23 11:28:58;;;;;;;2.83;0.70;;;16.40;53.80;;;;;;5072572;28;20037;-78
2021/05/23 11:31:37;;;;;;;4.45;1.05;;;17.00;53.70;;;;;;5073410;28;20029;-82
2021/05/23 11:34:04;;;;;;;4.32;0.98;;;17.40;52.00;;;;;;5074709;28;20024;-86
2021/05/23 11:36:33;;;;;;;8.35;1.38;;;17.50;51.10;;;;;;5074511;28;20107;-83
2021/05/23 11:39:01;;;;;;;6.38;1.25;;;17.60;51.20;;;;;;5073219;28;20024;-79
2021/05/23 11:41:47;;;;;;;4.03;1.10;;;17.80;51.30;;;;;;5073342;28;20111;-79
2021/05/23 11:44:14;;;;;;;5.20;1.10;;;18.20;50.30;;;;;;5074336;28;20074;-81
2021/05/23 11:46:42;;;;;;;3.33;1.00;;;18.50;50.90;;;;;;5074514;28;20016;-81
2021/05/23 11:49:20;;;;;;;6.60;0.88;;;18.80;48.40;;;;;;5073212;28;20017;-86
2021/05/23 11:51:46;;;;;;;4.28;1.00;;;18.70;47.00;;;;;;5073155;28;20043;-79
2021/05/23 11:54:11;;;;;;;5.45;1.15;;;18.40;44.00;;;;;;5074398;28;20389;-79
2021/05/23 11:56:39;;;;;;;4.78;0.80;;;18.10;45.60;;;;;;5074035;28;20021;-82
2021/05/23 11:59:07;;;;;;;4.78;1.10;;;18.20;47.20;;;;;;5074062;28;20020;-79
2021/05/23 12:01:34;;;;;;;4.00;0.77;;;18.70;46.90;;;;;;5074447;28;20017;-81
2021/05/23 12:04:19;;;;;;;3.92;0.80;;;19.20;45.20;;;;;;5073102;28;20029;-78
2021/05/23 12:06:55;;;;;;;5.28;0.90;;;19.70;45.40;;;;;;5073922;28;20025;-81
2021/05/23 12:09:22;;;;;;;5.70;1.42;;;20.20;44.10;;;;;;5072606;28;20028;-78
2021/05/23 12:11:51;;;;;;;6.63;1.13;;;20.50;43.60;;;;;;5072337;28;20114;-81
2021/05/23 12:14:21;;;;;;;3.70;0.70;;;20.40;43.50;;;;;;5072770;28;20078;-79
2021/05/23 12:17:06;;;;;;;4.18;1.00;;;20.20;42.80;;;;;;5074671;28;20414;-82
2021/05/23 12:19:47;;;;;;;5.30;1.00;;;19.70;42.80;;;;;;5072786;28;20051;-79
2021/05/23 12:22:38;;;;;;;2.60;0.70;;;19.30;43.00;;;;;;5072267;28;20028;-78
2021/05/23 12:25:03;;;;;;;3.92;0.90;;;19.00;44.00;;;;;;5073696;28;20439;-78
2021/05/23 12:27:33;;;;;;;3.53;0.70;;;19.20;43.80;;;;;;5073655;28;20028;-79
2021/05/23 12:30:18;;;;;;;7.07;1.13;;;19.60;43.90;;;;;;5073786;28;20090;-80
2021/05/23 12:32:47;;;;;;;4.53;0.80;;;19.80;42.80;;;;;;5072034;28;20021;-80
2021/05/23 12:35:27;;;;;;;4.68;1.00;;;19.90;42.00;;;;;;5073349;28;20419;-76
2021/05/23 12:38:00;;;;;;;5.00;0.75;;;19.80;41.90;;;;;;5073395;28;20384;-78
2021/05/23 12:40:27;;;;;;;4.32;1.08;;;19.90;42.60;;;;;;5073235;28;20524;-78